Analomink, Pennsylvania
Current Conditions -  °F | °C
As of 8:48 AM on Monday 24 Nov 2014 (Local Time) from KMPO Reporting Station
Light Rain Light Rain  
Wind Chill: 57°   Ceiling: 900
Heat Index: 57°   Visibility: 5mi
Dew Point: 55°   Wind: 22mph
Humidity: 94%   Direction: 210°SSW
Pressure: 29.64"   Gusts: 31mph
Location:  41.05°N, 75.22°W
Report Text: KMPO 241348Z AUTO 21019G27KT 5SM -RA BR OVC009 14/13 A2964 RMK AO2 PK WND 21027/1301 RAB21 CIG 006V012 P0002
Loading
Personal Weather Stations






























Interactive Weather Map New forecast layout! Learn more

10-Day Weather Forecast

Advertisements
Track Severe Weather on mobile